sensor_id;sensor_type;location;lat;lon;timestamp;P1;durP1;ratioP1;P2;durP2;ratioP2
62796;SDS011;48839;48.546;-4.178;2023-07-31T00:02:24;13.32;;;4.43;;
62796;SDS011;48839;48.546;-4.178;2023-07-31T00:04:50;17.92;;;4.90;;
62796;SDS011;48839;48.546;-4.178;2023-07-31T00:07:16;15.45;;;4.53;;
62796;SDS011;48839;48.546;-4.178;2023-07-31T00:09:43;15.88;;;4.28;;
62796;SDS011;48839;48.546;-4.178;2023-07-31T00:12:09;21.15;;;4.30;;
62796;SDS011;48839;48.546;-4.178;2023-07-31T00:14:35;19.52;;;4.97;;
62796;SDS011;48839;48.546;-4.178;2023-07-31T00:17:01;14.00;;;4.22;;
62796;SDS011;48839;48.546;-4.178;2023-07-31T00:19:27;18.52;;;5.53;;
62796;SDS011;48839;48.546;-4.178;2023-07-31T00:21:53;11.43;;;3.92;;
62796;SDS011;48839;48.546;-4.178;2023-07-31T00:24:19;20.05;;;4.47;;
62796;SDS011;48839;48.546;-4.178;2023-07-31T00:26:45;14.98;;;4.38;;
62796;SDS011;48839;48.546;-4.178;2023-07-31T00:29:11;24.15;;;5.25;;
62796;SDS011;48839;48.546;-4.178;2023-07-31T00:31:37;17.13;;;4.88;;
62796;SDS011;48839;48.546;-4.178;2023-07-31T00:34:03;15.77;;;5.25;;
62796;SDS011;48839;48.546;-4.178;2023-07-31T00:36:29;14.43;;;3.75;;
62796;SDS011;48839;48.546;-4.178;2023-07-31T00:38:55;18.48;;;4.32;;
62796;SDS011;48839;48.546;-4.178;2023-07-31T00:41:21;12.43;;;4.80;;
62796;SDS011;48839;48.546;-4.178;2023-07-31T00:43:47;15.45;;;4.53;;
62796;SDS011;48839;48.546;-4.178;2023-07-31T00:46:13;13.38;;;3.97;;
62796;SDS011;48839;48.546;-4.178;2023-07-31T00:48:39;8.88;;;3.83;;
62796;SDS011;48839;48.546;-4.178;2023-07-31T00:51:06;17.73;;;4.60;;
62796;SDS011;48839;48.546;-4.178;2023-07-31T00:53:32;15.27;;;4.50;;
62796;SDS011;48839;48.546;-4.178;2023-07-31T00:55:58;18.65;;;4.68;;
62796;SDS011;48839;48.546;-4.178;2023-07-31T00:58:24;13.68;;;3.95;;
62796;SDS011;48839;48.546;-4.178;2023-07-31T01:00:50;18.58;;;4.22;;
62796;SDS011;48839;48.546;-4.178;2023-07-31T01:03:17;15.68;;;4.93;;
62796;SDS011;48839;48.546;-4.178;2023-07-31T01:05:46;17.98;;;4.90;;
62796;SDS011;48839;48.546;-4.178;2023-07-31T01:08:29;18.05;;;5.25;;
62796;SDS011;48839;48.546;-4.178;2023-07-31T01:13:51;15.13;;;3.42;;
62796;SDS011;48839;48.546;-4.178;2023-07-31T01:16:17;17.00;;;3.42;;
62796;SDS011;48839;48.546;-4.178;2023-07-31T01:18:43;16.70;;;4.22;;
62796;SDS011;48839;48.546;-4.178;2023-07-31T01:26:21;12.90;;;4.45;;
62796;SDS011;48839;48.546;-4.178;2023-07-31T01:29:09;14.75;;;4.82;;
62796;SDS011;48839;48.546;-4.178;2023-07-31T01:31:36;13.75;;;3.70;;
62796;SDS011;48839;48.546;-4.178;2023-07-31T01:34:02;17.42;;;4.57;;
62796;SDS011;48839;48.546;-4.178;2023-07-31T01:36:30;13.77;;;3.60;;
62796;SDS011;48839;48.546;-4.178;2023-07-31T01:39:00;10.75;;;3.55;;
62796;SDS011;48839;48.546;-4.178;2023-07-31T01:41:26;15.30;;;4.18;;
62796;SDS011;48839;48.546;-4.178;2023-07-31T01:43:52;10.85;;;3.72;;
62796;SDS011;48839;48.546;-4.178;2023-07-31T01:46:18;8.57;;;4.22;;
62796;SDS011;48839;48.546;-4.178;2023-07-31T01:48:44;14.73;;;3.72;;
62796;SDS011;48839;48.546;-4.178;2023-07-31T01:51:10;14.45;;;4.15;;
62796;SDS011;48839;48.546;-4.178;2023-07-31T01:53:36;10.23;;;3.65;;
62796;SDS011;48839;48.546;-4.178;2023-07-31T01:56:02;12.50;;;3.47;;
62796;SDS011;48839;48.546;-4.178;2023-07-31T01:58:28;12.98;;;3.90;;
62796;SDS011;48839;48.546;-4.178;2023-07-31T02:00:54;13.98;;;3.42;;
62796;SDS011;48839;48.546;-4.178;2023-07-31T02:03:20;10.38;;;3.85;;
62796;SDS011;48839;48.546;-4.178;2023-07-31T02:05:47;11.27;;;4.32;;
62796;SDS011;48839;48.546;-4.178;2023-07-31T02:08:13;9.00;;;3.33;;
62796;SDS011;48839;48.546;-4.178;2023-07-31T02:10:39;8.13;;;3.38;;
62796;SDS011;48839;48.546;-4.178;2023-07-31T02:13:05;7.97;;;3.35;;
62796;SDS011;48839;48.546;-4.178;2023-07-31T02:15:31;11.27;;;3.92;;
62796;SDS011;48839;48.546;-4.178;2023-07-31T02:17:57;7.85;;;2.55;;
62796;SDS011;48839;48.546;-4.178;2023-07-31T02:20:23;9.18;;;2.95;;
62796;SDS011;48839;48.546;-4.178;2023-07-31T02:22:49;7.05;;;3.63;;
62796;SDS011;48839;48.546;-4.178;2023-07-31T02:25:15;7.57;;;3.47;;
62796;SDS011;48839;48.546;-4.178;2023-07-31T02:27:41;11.60;;;3.78;;
62796;SDS011;48839;48.546;-4.178;2023-07-31T02:30:07;10.65;;;3.75;;
62796;SDS011;48839;48.546;-4.178;2023-07-31T02:32:33;7.05;;;3.17;;
62796;SDS011;48839;48.546;-4.178;2023-07-31T02:34:59;6.85;;;2.67;;
62796;SDS011;48839;48.546;-4.178;2023-07-31T02:37:25;8.52;;;2.70;;
62796;SDS011;48839;48.546;-4.178;2023-07-31T02:39:53;9.38;;;3.45;;
62796;SDS011;48839;48.546;-4.178;2023-07-31T02:42:19;11.02;;;3.35;;
62796;SDS011;48839;48.546;-4.178;2023-07-31T02:44:45;5.53;;;2.60;;
62796;SDS011;48839;48.546;-4.178;2023-07-31T02:47:11;7.65;;;2.95;;
62796;SDS011;48839;48.546;-4.178;2023-07-31T02:49:37;5.50;;;2.92;;
62796;SDS011;48839;48.546;-4.178;2023-07-31T02:52:03;6.03;;;2.35;;
62796;SDS011;48839;48.546;-4.178;2023-07-31T02:54:29;4.28;;;2.40;;
62796;SDS011;48839;48.546;-4.178;2023-07-31T02:56:55;6.38;;;2.72;;
62796;SDS011;48839;48.546;-4.178;2023-07-31T02:59:21;7.22;;;2.47;;
62796;SDS011;48839;48.546;-4.178;2023-07-31T03:01:47;5.20;;;2.80;;
62796;SDS011;48839;48.546;-4.178;2023-07-31T03:04:14;7.35;;;2.90;;
62796;SDS011;48839;48.546;-4.178;2023-07-31T03:06:40;5.78;;;2.50;;
62796;SDS011;48839;48.546;-4.178;2023-07-31T03:09:05;8.48;;;2.80;;
62796;SDS011;48839;48.546;-4.178;2023-07-31T03:11:32;6.60;;;2.20;;
62796;SDS011;48839;48.546;-4.178;2023-07-31T03:13:58;3.42;;;2.00;;
62796;SDS011;48839;48.546;-4.178;2023-07-31T03:16:24;4.38;;;1.52;;
62796;SDS011;48839;48.546;-4.178;2023-07-31T03:18:50;3.05;;;1.90;;
62796;SDS011;48839;48.546;-4.178;2023-07-31T03:21:16;4.50;;;1.98;;
62796;SDS011;48839;48.546;-4.178;2023-07-31T03:23:42;2.95;;;1.75;;
62796;SDS011;48839;48.546;-4.178;2023-07-31T03:26:08;3.28;;;2.00;;
62796;SDS011;48839;48.546;-4.178;2023-07-31T03:28:34;4.72;;;2.13;;
62796;SDS011;48839;48.546;-4.178;2023-07-31T03:31:00;6.65;;;2.60;;
62796;SDS011;48839;48.546;-4.178;2023-07-31T03:33:27;11.38;;;3.47;;
62796;SDS011;48839;48.546;-4.178;2023-07-31T03:35:53;8.32;;;2.50;;
62796;SDS011;48839;48.546;-4.178;2023-07-31T03:38:19;9.02;;;3.35;;
62796;SDS011;48839;48.546;-4.178;2023-07-31T03:40:45;8.02;;;2.92;;
62796;SDS011;48839;48.546;-4.178;2023-07-31T03:43:11;12.05;;;3.08;;
62796;SDS011;48839;48.546;-4.178;2023-07-31T03:45:37;6.63;;;3.13;;
62796;SDS011;48839;48.546;-4.178;2023-07-31T03:48:04;4.05;;;2.33;;
62796;SDS011;48839;48.546;-4.178;2023-07-31T03:50:31;8.40;;;2.72;;
62796;SDS011;48839;48.546;-4.178;2023-07-31T03:52:57;16.30;;;3.00;;
62796;SDS011;48839;48.546;-4.178;2023-07-31T03:55:23;5.45;;;2.60;;
62796;SDS011;48839;48.546;-4.178;2023-07-31T03:57:49;3.92;;;2.47;;
62796;SDS011;48839;48.546;-4.178;2023-07-31T04:00:15;7.63;;;2.45;;
62796;SDS011;48839;48.546;-4.178;2023-07-31T04:02:41;6.90;;;3.05;;
62796;SDS011;48839;48.546;-4.178;2023-07-31T04:05:07;10.90;;;3.40;;
62796;SDS011;48839;48.546;-4.178;2023-07-31T04:07:33;11.57;;;3.92;;
62796;SDS011;48839;48.546;-4.178;2023-07-31T04:09:59;15.38;;;4.63;;
62796;SDS011;48839;48.546;-4.178;2023-07-31T04:12:25;12.68;;;4.60;;
62796;SDS011;48839;48.546;-4.178;2023-07-31T04:14:51;12.27;;;5.15;;
62796;SDS011;48839;48.546;-4.178;2023-07-31T04:17:17;8.93;;;4.15;;
62796;SDS011;48839;48.546;-4.178;2023-07-31T04:19:44;21.70;;;5.80;;
62796;SDS011;48839;48.546;-4.178;2023-07-31T04:22:10;15.25;;;4.80;;
62796;SDS011;48839;48.546;-4.178;2023-07-31T04:24:36;14.63;;;4.20;;
62796;SDS011;48839;48.546;-4.178;2023-07-31T04:27:02;13.40;;;5.28;;
62796;SDS011;48839;48.546;-4.178;2023-07-31T04:29:28;18.33;;;5.30;;
62796;SDS011;48839;48.546;-4.178;2023-07-31T04:31:54;17.88;;;4.60;;
62796;SDS011;48839;48.546;-4.178;2023-07-31T04:34:20;19.38;;;4.82;;
62796;SDS011;48839;48.546;-4.178;2023-07-31T04:36:46;15.38;;;5.80;;
62796;SDS011;48839;48.546;-4.178;2023-07-31T04:39:12;25.63;;;5.35;;
62796;SDS011;48839;48.546;-4.178;2023-07-31T04:41:38;14.15;;;4.75;;
62796;SDS011;48839;48.546;-4.178;2023-07-31T04:44:04;19.95;;;5.35;;
62796;SDS011;48839;48.546;-4.178;2023-07-31T04:46:30;18.90;;;5.32;;
62796;SDS011;48839;48.546;-4.178;2023-07-31T04:48:56;20.33;;;5.63;;
62796;SDS011;48839;48.546;-4.178;2023-07-31T04:51:22;20.13;;;5.60;;
62796;SDS011;48839;48.546;-4.178;2023-07-31T04:53:48;17.73;;;4.90;;
62796;SDS011;48839;48.546;-4.178;2023-07-31T04:56:15;15.55;;;4.90;;
62796;SDS011;48839;48.546;-4.178;2023-07-31T04:58:41;25.08;;;6.40;;
62796;SDS011;48839;48.546;-4.178;2023-07-31T05:01:07;18.42;;;5.32;;
62796;SDS011;48839;48.546;-4.178;2023-07-31T05:03:33;17.70;;;5.88;;
62796;SDS011;48839;48.546;-4.178;2023-07-31T05:05:59;17.10;;;5.65;;
62796;SDS011;48839;48.546;-4.178;2023-07-31T05:08:25;21.75;;;5.80;;
62796;SDS011;48839;48.546;-4.178;2023-07-31T05:10:51;14.95;;;5.47;;
62796;SDS011;48839;48.546;-4.178;2023-07-31T05:13:17;17.83;;;5.88;;
62796;SDS011;48839;48.546;-4.178;2023-07-31T05:15:43;20.35;;;5.38;;
62796;SDS011;48839;48.546;-4.178;2023-07-31T05:18:09;21.55;;;5.88;;
62796;SDS011;48839;48.546;-4.178;2023-07-31T05:20:35;16.75;;;5.30;;
62796;SDS011;48839;48.546;-4.178;2023-07-31T05:23:01;17.00;;;5.53;;
62796;SDS011;48839;48.546;-4.178;2023-07-31T05:25:27;26.20;;;6.25;;
62796;SDS011;48839;48.546;-4.178;2023-07-31T05:27:53;18.10;;;5.35;;
62796;SDS011;48839;48.546;-4.178;2023-07-31T05:30:19;17.83;;;5.38;;
62796;SDS011;48839;48.546;-4.178;2023-07-31T05:32:46;21.15;;;5.90;;
62796;SDS011;48839;48.546;-4.178;2023-07-31T05:35:12;19.08;;;5.13;;
62796;SDS011;48839;48.546;-4.178;2023-07-31T05:37:38;10.73;;;4.75;;
62796;SDS011;48839;48.546;-4.178;2023-07-31T05:40:04;19.30;;;5.90;;
62796;SDS011;48839;48.546;-4.178;2023-07-31T05:42:30;17.10;;;6.03;;
62796;SDS011;48839;48.546;-4.178;2023-07-31T05:44:56;11.93;;;4.43;;
62796;SDS011;48839;48.546;-4.178;2023-07-31T05:47:22;9.10;;;3.95;;
62796;SDS011;48839;48.546;-4.178;2023-07-31T05:49:49;11.20;;;4.07;;
62796;SDS011;48839;48.546;-4.178;2023-07-31T05:52:17;15.82;;;4.80;;
62796;SDS011;48839;48.546;-4.178;2023-07-31T05:54:43;19.17;;;5.00;;
62796;SDS011;48839;48.546;-4.178;2023-07-31T05:57:11;20.15;;;5.45;;
62796;SDS011;48839;48.546;-4.178;2023-07-31T05:59:37;19.48;;;5.25;;
62796;SDS011;48839;48.546;-4.178;2023-07-31T06:02:03;20.92;;;5.93;;
62796;SDS011;48839;48.546;-4.178;2023-07-31T06:04:29;17.50;;;7.53;;
62796;SDS011;48839;48.546;-4.178;2023-07-31T06:06:55;22.88;;;7.20;;
62796;SDS011;48839;48.546;-4.178;2023-07-31T06:09:21;27.90;;;6.53;;
62796;SDS011;48839;48.546;-4.178;2023-07-31T06:11:47;27.83;;;6.53;;
62796;SDS011;48839;48.546;-4.178;2023-07-31T06:14:14;19.30;;;6.43;;
62796;SDS011;48839;48.546;-4.178;2023-07-31T06:16:40;20.50;;;6.55;;
62796;SDS011;48839;48.546;-4.178;2023-07-31T06:19:06;20.70;;;5.13;;
62796;SDS011;48839;48.546;-4.178;2023-07-31T06:21:32;16.90;;;5.90;;
62796;SDS011;48839;48.546;-4.178;2023-07-31T06:23:58;15.60;;;5.88;;
62796;SDS011;48839;48.546;-4.178;2023-07-31T06:26:24;18.63;;;5.75;;
62796;SDS011;48839;48.546;-4.178;2023-07-31T06:28:50;13.88;;;5.35;;
62796;SDS011;48839;48.546;-4.178;2023-07-31T06:31:16;17.70;;;5.72;;
62796;SDS011;48839;48.546;-4.178;2023-07-31T06:33:45;19.50;;;5.78;;
62796;SDS011;48839;48.546;-4.178;2023-07-31T06:36:11;20.05;;;5.00;;
62796;SDS011;48839;48.546;-4.178;2023-07-31T06:38:37;14.70;;;4.40;;
62796;SDS011;48839;48.546;-4.178;2023-07-31T06:41:03;11.80;;;3.88;;
62796;SDS011;48839;48.546;-4.178;2023-07-31T06:43:29;6.40;;;2.58;;
62796;SDS011;48839;48.546;-4.178;2023-07-31T06:45:55;7.00;;;3.08;;
62796;SDS011;48839;48.546;-4.178;2023-07-31T06:48:21;9.25;;;3.22;;
62796;SDS011;48839;48.546;-4.178;2023-07-31T06:50:47;9.30;;;2.97;;
62796;SDS011;48839;48.546;-4.178;2023-07-31T06:53:13;11.10;;;3.40;;
62796;SDS011;48839;48.546;-4.178;2023-07-31T06:55:39;11.82;;;2.90;;
62796;SDS011;48839;48.546;-4.178;2023-07-31T06:58:05;7.85;;;2.70;;
62796;SDS011;48839;48.546;-4.178;2023-07-31T07:00:31;11.40;;;2.70;;
62796;SDS011;48839;48.546;-4.178;2023-07-31T07:02:57;4.15;;;2.25;;
62796;SDS011;48839;48.546;-4.178;2023-07-31T07:05:24;6.28;;;2.47;;
62796;SDS011;48839;48.546;-4.178;2023-07-31T07:07:50;10.80;;;3.20;;
62796;SDS011;48839;48.546;-4.178;2023-07-31T07:10:17;3.33;;;1.95;;
62796;SDS011;48839;48.546;-4.178;2023-07-31T07:12:43;4.70;;;2.05;;
62796;SDS011;48839;48.546;-4.178;2023-07-31T07:15:09;4.55;;;2.45;;
62796;SDS011;48839;48.546;-4.178;2023-07-31T07:17:35;8.07;;;2.40;;
62796;SDS011;48839;48.546;-4.178;2023-07-31T07:20:01;13.50;;;2.42;;
62796;SDS011;48839;48.546;-4.178;2023-07-31T07:22:28;8.65;;;2.10;;
62796;SDS011;48839;48.546;-4.178;2023-07-31T07:24:54;5.28;;;2.33;;
62796;SDS011;48839;48.546;-4.178;2023-07-31T07:27:21;7.03;;;2.10;;
62796;SDS011;48839;48.546;-4.178;2023-07-31T07:29:47;3.90;;;1.65;;
62796;SDS011;48839;48.546;-4.178;2023-07-31T07:32:13;3.63;;;1.92;;
62796;SDS011;48839;48.546;-4.178;2023-07-31T07:34:39;5.68;;;1.40;;
62796;SDS011;48839;48.546;-4.178;2023-07-31T07:37:05;3.40;;;1.73;;
62796;SDS011;48839;48.546;-4.178;2023-07-31T07:39:31;7.68;;;1.52;;
62796;SDS011;48839;48.546;-4.178;2023-07-31T07:41:57;4.50;;;1.45;;
62796;SDS011;48839;48.546;-4.178;2023-07-31T07:44:23;2.75;;;1.00;;
62796;SDS011;48839;48.546;-4.178;2023-07-31T07:46:49;2.33;;;1.30;;
62796;SDS011;48839;48.546;-4.178;2023-07-31T07:49:15;4.82;;;1.10;;
62796;SDS011;48839;48.546;-4.178;2023-07-31T07:51:41;2.97;;;1.20;;
62796;SDS011;48839;48.546;-4.178;2023-07-31T07:54:07;1.60;;;1.08;;
62796;SDS011;48839;48.546;-4.178;2023-07-31T07:56:33;2.45;;;1.27;;
62796;SDS011;48839;48.546;-4.178;2023-07-31T07:59:01;1.15;;;1.05;;
62796;SDS011;48839;48.546;-4.178;2023-07-31T08:01:27;5.05;;;1.95;;
62796;SDS011;48839;48.546;-4.178;2023-07-31T08:03:53;2.58;;;1.10;;
62796;SDS011;48839;48.546;-4.178;2023-07-31T08:06:19;3.60;;;1.02;;
62796;SDS011;48839;48.546;-4.178;2023-07-31T08:08:45;4.00;;;1.20;;
62796;SDS011;48839;48.546;-4.178;2023-07-31T08:11:11;2.95;;;0.98;;
62796;SDS011;48839;48.546;-4.178;2023-07-31T08:13:37;3.38;;;1.10;;
62796;SDS011;48839;48.546;-4.178;2023-07-31T08:16:03;3.45;;;1.10;;
62796;SDS011;48839;48.546;-4.178;2023-07-31T08:18:30;1.08;;;0.90;;
62796;SDS011;48839;48.546;-4.178;2023-07-31T08:20:57;3.45;;;0.82;;
62796;SDS011;48839;48.546;-4.178;2023-07-31T08:23:23;4.43;;;1.10;;
62796;SDS011;48839;48.546;-4.178;2023-07-31T08:25:49;2.40;;;1.33;;
62796;SDS011;48839;48.546;-4.178;2023-07-31T08:28:16;3.25;;;0.93;;
62796;SDS011;48839;48.546;-4.178;2023-07-31T08:30:42;6.80;;;1.60;;
62796;SDS011;48839;48.546;-4.178;2023-07-31T08:33:08;4.43;;;1.85;;
62796;SDS011;48839;48.546;-4.178;2023-07-31T08:35:34;4.35;;;1.55;;
62796;SDS011;48839;48.546;-4.178;2023-07-31T08:38:00;4.00;;;1.42;;
62796;SDS011;48839;48.546;-4.178;2023-07-31T08:40:26;3.28;;;1.33;;
62796;SDS011;48839;48.546;-4.178;2023-07-31T08:42:53;6.18;;;1.85;;
62796;SDS011;48839;48.546;-4.178;2023-07-31T08:45:21;4.10;;;1.63;;
62796;SDS011;48839;48.546;-4.178;2023-07-31T08:47:48;3.33;;;1.45;;
62796;SDS011;48839;48.546;-4.178;2023-07-31T08:50:16;2.97;;;1.33;;
62796;SDS011;48839;48.546;-4.178;2023-07-31T08:52:42;3.35;;;1.27;;
62796;SDS011;48839;48.546;-4.178;2023-07-31T08:55:08;3.53;;;1.70;;
62796;SDS011;48839;48.546;-4.178;2023-07-31T08:57:35;5.10;;;1.30;;
62796;SDS011;48839;48.546;-4.178;2023-07-31T09:00:02;4.25;;;1.55;;
62796;SDS011;48839;48.546;-4.178;2023-07-31T09:03:16;2.67;;;0.90;;
62796;SDS011;48839;48.546;-4.178;2023-07-31T09:05:16;3.50;;;1.35;;
62796;SDS011;48839;48.546;-4.178;2023-07-31T09:07:43;1.38;;;1.17;;
62796;SDS011;48839;48.546;-4.178;2023-07-31T09:10:12;4.35;;;1.20;;
62796;SDS011;48839;48.546;-4.178;2023-07-31T09:12:38;2.20;;;1.52;;
62796;SDS011;48839;48.546;-4.178;2023-07-31T09:15:05;3.03;;;1.10;;
62796;SDS011;48839;48.546;-4.178;2023-07-31T09:17:31;2.17;;;1.13;;
62796;SDS011;48839;48.546;-4.178;2023-07-31T09:20:05;2.15;;;1.10;;
62796;SDS011;48839;48.546;-4.178;2023-07-31T09:22:38;3.45;;;1.13;;
62796;SDS011;48839;48.546;-4.178;2023-07-31T09:25:20;2.42;;;1.40;;
62796;SDS011;48839;48.546;-4.178;2023-07-31T09:27:47;1.98;;;1.10;;
62796;SDS011;48839;48.546;-4.178;2023-07-31T09:30:17;1.27;;;0.82;;
62796;SDS011;48839;48.546;-4.178;2023-07-31T09:32:44;4.35;;;1.05;;
62796;SDS011;48839;48.546;-4.178;2023-07-31T09:35:28;1.40;;;1.30;;
62796;SDS011;48839;48.546;-4.178;2023-07-31T09:38:01;4.72;;;1.30;;
62796;SDS011;48839;48.546;-4.178;2023-07-31T09:40:32;2.83;;;0.73;;
62796;SDS011;48839;48.546;-4.178;2023-07-31T09:42:59;2.20;;;1.10;;
62796;SDS011;48839;48.546;-4.178;2023-07-31T09:45:26;5.65;;;1.50;;
62796;SDS011;48839;48.546;-4.178;2023-07-31T09:47:52;2.63;;;1.45;;
62796;SDS011;48839;48.546;-4.178;2023-07-31T09:50:19;2.78;;;1.60;;
62796;SDS011;48839;48.546;-4.178;2023-07-31T09:52:46;5.40;;;1.90;;
62796;SDS011;48839;48.546;-4.178;2023-07-31T09:55:12;4.05;;;1.40;;
62796;SDS011;48839;48.546;-4.178;2023-07-31T09:57:41;3.40;;;1.95;;
62796;SDS011;48839;48.546;-4.178;2023-07-31T10:00:08;3.88;;;1.60;;
62796;SDS011;48839;48.546;-4.178;2023-07-31T10:02:34;3.70;;;1.98;;
62796;SDS011;48839;48.546;-4.178;2023-07-31T10:05:02;3.88;;;1.70;;
62796;SDS011;48839;48.546;-4.178;2023-07-31T10:07:29;3.13;;;1.67;;
62796;SDS011;48839;48.546;-4.178;2023-07-31T10:09:57;3.05;;;1.67;;
62796;SDS011;48839;48.546;-4.178;2023-07-31T10:12:25;2.47;;;1.50;;
62796;SDS011;48839;48.546;-4.178;2023-07-31T10:14:54;3.70;;;1.85;;
62796;SDS011;48839;48.546;-4.178;2023-07-31T10:17:21;4.93;;;1.38;;
62796;SDS011;48839;48.546;-4.178;2023-07-31T10:19:47;2.60;;;1.65;;
62796;SDS011;48839;48.546;-4.178;2023-07-31T10:22:14;3.22;;;1.48;;
62796;SDS011;48839;48.546;-4.178;2023-07-31T10:24:40;2.92;;;1.38;;
62796;SDS011;48839;48.546;-4.178;2023-07-31T10:27:08;2.42;;;1.60;;
62796;SDS011;48839;48.546;-4.178;2023-07-31T10:29:36;1.70;;;1.23;;
62796;SDS011;48839;48.546;-4.178;2023-07-31T10:32:02;2.88;;;1.42;;
62796;SDS011;48839;48.546;-4.178;2023-07-31T10:34:33;3.70;;;1.15;;
62796;SDS011;48839;48.546;-4.178;2023-07-31T10:39:43;3.35;;;1.17;;
62796;SDS011;48839;48.546;-4.178;2023-07-31T10:42:20;3.25;;;1.20;;
62796;SDS011;48839;48.546;-4.178;2023-07-31T10:44:56;2.22;;;1.40;;
62796;SDS011;48839;48.546;-4.178;2023-07-31T10:47:22;3.63;;;1.55;;
62796;SDS011;48839;48.546;-4.178;2023-07-31T10:49:48;2.67;;;1.20;;
62796;SDS011;48839;48.546;-4.178;2023-07-31T10:52:16;2.40;;;1.35;;
62796;SDS011;48839;48.546;-4.178;2023-07-31T10:54:47;4.67;;;1.73;;
62796;SDS011;48839;48.546;-4.178;2023-07-31T10:57:20;2.83;;;1.42;;
62796;SDS011;48839;48.546;-4.178;2023-07-31T10:59:47;3.67;;;1.65;;
62796;SDS011;48839;48.546;-4.178;2023-07-31T11:02:25;2.72;;;1.30;;
62796;SDS011;48839;48.546;-4.178;2023-07-31T11:05:08;3.08;;;1.33;;
62796;SDS011;48839;48.546;-4.178;2023-07-31T11:07:47;2.78;;;1.60;;
62796;SDS011;48839;48.546;-4.178;2023-07-31T11:10:15;2.40;;;1.70;;
62796;SDS011;48839;48.546;-4.178;2023-07-31T11:12:42;3.25;;;1.75;;
62796;SDS011;48839;48.546;-4.178;2023-07-31T11:15:08;3.92;;;1.90;;
62796;SDS011;48839;48.546;-4.178;2023-07-31T11:17:38;4.22;;;2.00;;
62796;SDS011;48839;48.546;-4.178;2023-07-31T11:20:04;8.10;;;2.83;;
62796;SDS011;48839;48.546;-4.178;2023-07-31T11:22:30;2.78;;;2.05;;
62796;SDS011;48839;48.546;-4.178;2023-07-31T11:24:56;7.63;;;2.20;;
62796;SDS011;48839;48.546;-4.178;2023-07-31T11:27:27;2.25;;;1.92;;
62796;SDS011;48839;48.546;-4.178;2023-07-31T11:29:53;4.20;;;1.90;;
62796;SDS011;48839;48.546;-4.178;2023-07-31T11:32:19;4.05;;;2.40;;
62796;SDS011;48839;48.546;-4.178;2023-07-31T11:34:52;8.23;;;2.38;;
62796;SDS011;48839;48.546;-4.178;2023-07-31T11:37:18;7.43;;;2.28;;
62796;SDS011;48839;48.546;-4.178;2023-07-31T11:39:58;3.50;;;2.08;;
62796;SDS011;48839;48.546;-4.178;2023-07-31T11:42:24;4.05;;;2.50;;
62796;SDS011;48839;48.546;-4.178;2023-07-31T11:44:50;3.28;;;1.80;;
62796;SDS011;48839;48.546;-4.178;2023-07-31T11:47:16;2.40;;;1.30;;
62796;SDS011;48839;48.546;-4.178;2023-07-31T11:49:43;2.30;;;1.63;;
62796;SDS011;48839;48.546;-4.178;2023-07-31T11:52:09;2.15;;;1.00;;
62796;SDS011;48839;48.546;-4.178;2023-07-31T11:54:36;1.63;;;0.85;;
62796;SDS011;48839;48.546;-4.178;2023-07-31T11:57:02;0.98;;;0.70;;
62796;SDS011;48839;48.546;-4.178;2023-07-31T11:59:29;1.50;;;0.93;;
62796;SDS011;48839;48.546;-4.178;2023-07-31T12:01:55;2.35;;;1.00;;
62796;SDS011;48839;48.546;-4.178;2023-07-31T12:04:21;1.42;;;0.70;;
62796;SDS011;48839;48.546;-4.178;2023-07-31T12:06:47;0.90;;;0.70;;
62796;SDS011;48839;48.546;-4.178;2023-07-31T12:09:16;0.52;;;0.52;;
62796;SDS011;48839;48.546;-4.178;2023-07-31T12:11:46;0.45;;;0.40;;
62796;SDS011;48839;48.546;-4.178;2023-07-31T12:14:24;0.55;;;0.55;;
62796;SDS011;48839;48.546;-4.178;2023-07-31T12:16:58;1.00;;;0.60;;
62796;SDS011;48839;48.546;-4.178;2023-07-31T12:19:25;0.40;;;0.40;;
62796;SDS011;48839;48.546;-4.178;2023-07-31T12:21:55;2.53;;;1.30;;
62796;SDS011;48839;48.546;-4.178;2023-07-31T12:24:21;0.38;;;0.35;;
62796;SDS011;48839;48.546;-4.178;2023-07-31T12:26:47;0.40;;;0.40;;
62796;SDS011;48839;48.546;-4.178;2023-07-31T12:29:14;0.30;;;0.30;;
62796;SDS011;48839;48.546;-4.178;2023-07-31T12:31:43;0.98;;;0.50;;
62796;SDS011;48839;48.546;-4.178;2023-07-31T12:34:19;1.05;;;0.30;;
62796;SDS011;48839;48.546;-4.178;2023-07-31T12:36:46;1.25;;;0.43;;
62796;SDS011;48839;48.546;-4.178;2023-07-31T12:39:14;0.38;;;0.38;;
62796;SDS011;48839;48.546;-4.178;2023-07-31T12:41:40;0.45;;;0.40;;
62796;SDS011;48839;48.546;-4.178;2023-07-31T12:44:06;2.95;;;0.50;;
62796;SDS011;48839;48.546;-4.178;2023-07-31T12:46:32;0.30;;;0.30;;
62796;SDS011;48839;48.546;-4.178;2023-07-31T12:48:58;0.68;;;0.30;;
62796;SDS011;48839;48.546;-4.178;2023-07-31T12:51:24;0.32;;;0.32;;
62796;SDS011;48839;48.546;-4.178;2023-07-31T12:53:50;0.52;;;0.40;;
62796;SDS011;48839;48.546;-4.178;2023-07-31T12:56:16;0.52;;;0.35;;
62796;SDS011;48839;48.546;-4.178;2023-07-31T12:58:42;0.52;;;0.40;;
62796;SDS011;48839;48.546;-4.178;2023-07-31T13:01:08;0.30;;;0.30;;
62796;SDS011;48839;48.546;-4.178;2023-07-31T13:03:34;0.45;;;0.30;;
62796;SDS011;48839;48.546;-4.178;2023-07-31T13:06:00;0.95;;;0.75;;
62796;SDS011;48839;48.546;-4.178;2023-07-31T13:08:26;0.70;;;0.70;;
62796;SDS011;48839;48.546;-4.178;2023-07-31T13:10:53;1.73;;;0.85;;
62796;SDS011;48839;48.546;-4.178;2023-07-31T13:13:19;2.92;;;1.15;;
62796;SDS011;48839;48.546;-4.178;2023-07-31T13:15:45;2.58;;;1.33;;
62796;SDS011;48839;48.546;-4.178;2023-07-31T13:18:11;1.55;;;1.17;;
62796;SDS011;48839;48.546;-4.178;2023-07-31T13:20:37;3.00;;;1.42;;
62796;SDS011;48839;48.546;-4.178;2023-07-31T13:23:03;2.35;;;1.60;;
62796;SDS011;48839;48.546;-4.178;2023-07-31T13:25:29;5.07;;;1.95;;
62796;SDS011;48839;48.546;-4.178;2023-07-31T13:27:55;2.25;;;1.42;;
62796;SDS011;48839;48.546;-4.178;2023-07-31T13:30:21;2.60;;;1.27;;
62796;SDS011;48839;48.546;-4.178;2023-07-31T13:32:47;2.00;;;1.45;;
62796;SDS011;48839;48.546;-4.178;2023-07-31T13:35:13;4.78;;;1.48;;
62796;SDS011;48839;48.546;-4.178;2023-07-31T13:37:39;2.30;;;1.60;;
62796;SDS011;48839;48.546;-4.178;2023-07-31T13:40:05;7.13;;;4.22;;
62796;SDS011;48839;48.546;-4.178;2023-07-31T13:42:31;52.22;;;26.33;;
62796;SDS011;48839;48.546;-4.178;2023-07-31T13:44:58;51.42;;;34.42;;
62796;SDS011;48839;48.546;-4.178;2023-07-31T13:47:24;16.73;;;12.43;;
62796;SDS011;48839;48.546;-4.178;2023-07-31T13:49:50;16.75;;;11.65;;
62796;SDS011;48839;48.546;-4.178;2023-07-31T13:52:16;10.90;;;9.63;;
62796;SDS011;48839;48.546;-4.178;2023-07-31T13:54:42;9.30;;;5.78;;
62796;SDS011;48839;48.546;-4.178;2023-07-31T13:57:08;7.88;;;4.15;;
62796;SDS011;48839;48.546;-4.178;2023-07-31T13:59:34;8.40;;;3.45;;
62796;SDS011;48839;48.546;-4.178;2023-07-31T14:02:01;9.93;;;4.50;;
62796;SDS011;48839;48.546;-4.178;2023-07-31T14:04:28;4.22;;;2.63;;
62796;SDS011;48839;48.546;-4.178;2023-07-31T14:06:55;9.18;;;4.07;;
62796;SDS011;48839;48.546;-4.178;2023-07-31T14:09:21;7.07;;;4.28;;
62796;SDS011;48839;48.546;-4.178;2023-07-31T14:11:47;6.53;;;4.05;;
62796;SDS011;48839;48.546;-4.178;2023-07-31T14:14:13;7.75;;;4.10;;
62796;SDS011;48839;48.546;-4.178;2023-07-31T14:16:39;5.28;;;2.25;;
62796;SDS011;48839;48.546;-4.178;2023-07-31T14:19:05;3.92;;;2.47;;
62796;SDS011;48839;48.546;-4.178;2023-07-31T14:21:33;4.50;;;2.83;;
62796;SDS011;48839;48.546;-4.178;2023-07-31T14:23:59;3.70;;;2.47;;
62796;SDS011;48839;48.546;-4.178;2023-07-31T14:26:25;4.03;;;2.67;;
62796;SDS011;48839;48.546;-4.178;2023-07-31T14:28:51;3.65;;;2.15;;
62796;SDS011;48839;48.546;-4.178;2023-07-31T14:31:17;3.92;;;1.80;;
62796;SDS011;48839;48.546;-4.178;2023-07-31T14:33:43;3.47;;;1.83;;
62796;SDS011;48839;48.546;-4.178;2023-07-31T14:36:09;5.32;;;1.50;;
62796;SDS011;48839;48.546;-4.178;2023-07-31T14:38:35;3.25;;;2.08;;
62796;SDS011;48839;48.546;-4.178;2023-07-31T14:41:01;5.25;;;1.70;;